ADDS METAR Data INFO
IDs: Format: Raw Decoded Include TAF

Data at: 0608 UTC 25 Jun 2018

KFTW 250553Z 16019G30KT 10SM CLR 29/23 A2982 RMK AO2 PK WND 15033/0533 SLP087 T02890228 10361 20289 403720267 50000
KFTW 250453Z 16018G30KT 10SM CLR 30/22 A2983 RMK AO2 PK WND 16032/0422 SLP090 T03000222
KFTW 250353Z 15020G29KT 10SM CLR 31/22 A2983 RMK AO2 PK WND 15029/0342 SLP090 T03110217
KFTW 250253Z 15016G25KT 10SM CLR 32/21 A2982 RMK AO2 PK WND 15031/0205 SLP086 T03220206 53007
KFTW 250153Z 14019G30KT 10SM CLR 33/21 A2980 RMK AO2 PK WND 14033/0129 SLP079 T03330211
KFTW 250053Z 15013KT 10SM CLR 34/19 A2981 RMK AO2 PK WND 17026/0028 SLP082 T03440194
KFTW 242353Z 13016KT 10SM SCT070 SCT090 36/20 A2980 RMK AO2 PK WND 13026/2339 SLP079 T03610200 10372 20333 51016
KFTW 242253Z 14015G26KT 10SM FEW070 37/21 A2979 RMK AO2 PK WND 15028/2159 SLP076 T03670206
KFTW 242153Z 16020G29KT 10SM CLR 37/20 A2976 RMK AO2 PK WND 16035/2106 SLP067 T03720200
KFTW 242053Z 15020G31KT 10SM CLR 37/21 A2975 RMK AO2 PK WND 15031/2003 SLP062 T03720206 56026
KFTW 241953Z 16020G30KT 10SM CLR 37/21 A2976 RMK AO2 PK WND 15030/1953 SLP066 T03670211
KFTW 241853Z 17017G26KT 10SM CLR 36/22 A2980 RMK AO2 PK WND 17029/1834 SLP080 T03560217
KFTW 241753Z 16012G22KT 10SM FEW039 34/23 A2983 RMK AO2 PK WND 17028/1734 SLP090 T03390228 10339 20267 58009
KFTW 241653Z 17015KT 10SM FEW039 33/22 A2984 RMK AO2 SLP094 T03280222
KFTW 241553Z 17016G24KT 10SM SCT037 32/22 A2985 RMK AO2 SLP096 T03220222
KFTW 241453Z 15011KT 10SM BKN033 30/22 A2986 RMK AO2 SLP099 T03000222 51025
KFTW 241353Z 17009KT 10SM BKN032 29/22 A2985 RMK AO2 SLP097 T02890222
KFTW 241253Z 17006KT 10SM BKN032 27/22 A2983 RMK AO2 SLP090 T02720222
KFTW 241202Z 17015KT 10SM FEW028 27/22 A2978 RMK AO2 T02720222
KFTW 241153Z 18015G23KT 10SM BKN028 27/22 A2978 RMK AO2 SLP073 60000 T02720222 10300 20272 53044
KFTW 241053Z 18013G24KT 10SM BKN025 OVC030 28/23 A2975 RMK AO2 SLP062 T02780233
KFTW 241017Z 21016G23KT 180V250 10SM BKN027 28/23 A2973 RMK AO2 T02780233
KFTW 240953Z 17016G27KT 10SM CLR 28/23 A2967 RMK AO2 PK WND 16037/0917 SLP036 T02780228
KFTW 240853Z 17026G38KT 10SM CLR 28/23 A2965 RMK AO2 PK WND 15040/0822 SLP028 60000 T02780233 56052
KFTW 240753Z 16023G31KT 10SM CLR 28/23 A2965 RMK AO2 PK WND 15035/0730 RAE15 TSE11 SLP029 P0000 T02780233
KFTW 240713Z 16022G34KT 10SM -RA CLR 27/24 A2970 RMK AO2 PK WND 15034/0707 LTG DSNT SW TSE11 PRESFR P0000 T02720239
KFTW 240653Z 16020G34KT 10SM -TSRA FEW100 28/23 A2975 RMK AO2 PK WND 15034/0650 LTG DSNT S-NW RAB50 TSB10 PRESFR SLP061 P0000 T02830233
KFTW 240616Z 15017G23KT 10SM TS BKN080 OVC110 30/23 A2979 RMK AO2 LTG DSNT N AND SW TSB10 T03000228
KFTW 240553Z 16014G21KT 10SM BKN085 30/23 A2980 RMK AO2 LTG DSNT SW AND NW SLP081 T03000228 10356 20300 403720256 51030
KFTW 240453Z 16017G26KT 10SM CLR 31/23 A2979 RMK AO2 PK WND 15027/0435 SLP076 T03060228
KFTW 240353Z 15018G25KT 10SM CLR 31/22 A2975 RMK AO2 PK WND 14029/0323 SLP064 T03110222
KFTW 240253Z 15014G26KT 10SM CLR 32/21 A2971 RMK AO2 PK WND 14026/0251 SLP050 T03220211 53000
KFTW 240153Z 14017G23KT 10SM CLR 33/21 A2970 RMK AO2 SLP048 T03330206
KFTW 240053Z 15014G23KT 10SM CLR 34/21 A2971 RMK AO2 SLP049 T03390206
KFTW 232353Z 15015KT 10SM FEW070 36/20 A2971 RMK AO2 SLP050 T03560200 10372 20317 55009
KFTW 232253Z 16014G24KT 10SM CLR 36/19 A2971 RMK AO2 PK WND 14027/2201 SLP049 T03610194
KFTW 232153Z 18016G24KT 10SM CLR 37/19 A2972 RMK AO2 PK WND 17029/2101 SLP053 T03670194
KFTW 232053Z 17012G26KT 10SM FEW060 36/20 A2974 RMK AO2 PK WND 18028/2018 SLP059 T03610200 56025
KFTW 231953Z 16017G25KT 10SM FEW055 36/21 A2975 RMK AO2 PK WND 16027/1918 SLP063 T03610211
KFTW 231853Z 17017G22KT 10SM BKN049 BKN060 35/22 A2978 RMK AO2 SLP073 T03500222